sensor_id;sensor_type;location;lat;lon;timestamp;P1;durP1;ratioP1;P2;durP2;ratioP2
22531;SDS011;11432;46.924;7.114;2022-12-11T00:02:03;10.85;;;7.32;;
22531;SDS011;11432;46.924;7.114;2022-12-11T00:04:29;11.93;;;7.75;;
22531;SDS011;11432;46.924;7.114;2022-12-11T00:06:55;11.77;;;7.80;;
22531;SDS011;11432;46.924;7.114;2022-12-11T00:09:21;10.98;;;7.43;;
22531;SDS011;11432;46.924;7.114;2022-12-11T00:11:47;11.85;;;7.85;;
22531;SDS011;11432;46.924;7.114;2022-12-11T00:14:13;10.45;;;7.28;;
22531;SDS011;11432;46.924;7.114;2022-12-11T00:16:40;10.52;;;7.68;;
22531;SDS011;11432;46.924;7.114;2022-12-11T00:19:06;10.93;;;7.65;;
22531;SDS011;11432;46.924;7.114;2022-12-11T00:21:32;11.93;;;7.60;;
22531;SDS011;11432;46.924;7.114;2022-12-11T00:23:58;10.38;;;7.15;;
22531;SDS011;11432;46.924;7.114;2022-12-11T00:26:23;10.90;;;7.55;;
22531;SDS011;11432;46.924;7.114;2022-12-11T00:28:51;11.50;;;7.63;;
22531;SDS011;11432;46.924;7.114;2022-12-11T00:31:18;12.52;;;7.70;;
22531;SDS011;11432;46.924;7.114;2022-12-11T00:33:45;11.90;;;8.52;;
22531;SDS011;11432;46.924;7.114;2022-12-11T00:36:14;10.82;;;7.47;;
22531;SDS011;11432;46.924;7.114;2022-12-11T00:38:41;12.60;;;8.20;;
22531;SDS011;11432;46.924;7.114;2022-12-11T00:41:07;11.68;;;7.97;;
22531;SDS011;11432;46.924;7.114;2022-12-11T00:43:33;11.98;;;8.23;;
22531;SDS011;11432;46.924;7.114;2022-12-11T00:45:59;13.15;;;8.65;;
22531;SDS011;11432;46.924;7.114;2022-12-11T00:48:25;11.90;;;8.02;;
22531;SDS011;11432;46.924;7.114;2022-12-11T00:50:50;12.65;;;8.80;;
22531;SDS011;11432;46.924;7.114;2022-12-11T00:53:16;10.88;;;7.88;;
22531;SDS011;11432;46.924;7.114;2022-12-11T00:55:42;11.73;;;8.10;;
22531;SDS011;11432;46.924;7.114;2022-12-11T00:58:08;12.02;;;7.93;;
22531;SDS011;11432;46.924;7.114;2022-12-11T01:00:35;12.10;;;8.45;;
22531;SDS011;11432;46.924;7.114;2022-12-11T01:03:00;13.18;;;8.65;;
22531;SDS011;11432;46.924;7.114;2022-12-11T01:05:26;12.15;;;8.18;;
22531;SDS011;11432;46.924;7.114;2022-12-11T01:07:52;13.70;;;8.68;;
22531;SDS011;11432;46.924;7.114;2022-12-11T01:10:17;12.85;;;8.48;;
22531;SDS011;11432;46.924;7.114;2022-12-11T01:12:50;13.30;;;8.57;;
22531;SDS011;11432;46.924;7.114;2022-12-11T01:15:17;11.82;;;8.10;;
22531;SDS011;11432;46.924;7.114;2022-12-11T01:17:43;14.43;;;8.63;;
22531;SDS011;11432;46.924;7.114;2022-12-11T01:20:09;12.82;;;8.70;;
22531;SDS011;11432;46.924;7.114;2022-12-11T01:22:35;13.43;;;9.18;;
22531;SDS011;11432;46.924;7.114;2022-12-11T01:25:00;14.85;;;9.05;;
22531;SDS011;11432;46.924;7.114;2022-12-11T01:27:26;12.88;;;9.05;;
22531;SDS011;11432;46.924;7.114;2022-12-11T01:29:52;11.57;;;8.18;;
22531;SDS011;11432;46.924;7.114;2022-12-11T01:32:17;13.98;;;9.55;;
22531;SDS011;11432;46.924;7.114;2022-12-11T01:34:43;12.70;;;8.63;;
22531;SDS011;11432;46.924;7.114;2022-12-11T01:37:09;13.07;;;9.15;;
22531;SDS011;11432;46.924;7.114;2022-12-11T01:39:34;13.82;;;9.10;;
22531;SDS011;11432;46.924;7.114;2022-12-11T01:42:02;13.77;;;9.15;;
22531;SDS011;11432;46.924;7.114;2022-12-11T01:46:53;12.88;;;8.70;;
22531;SDS011;11432;46.924;7.114;2022-12-11T01:49:20;13.27;;;9.02;;
22531;SDS011;11432;46.924;7.114;2022-12-11T01:54:22;13.25;;;9.07;;
22531;SDS011;11432;46.924;7.114;2022-12-11T01:56:51;13.82;;;9.50;;
22531;SDS011;11432;46.924;7.114;2022-12-11T01:59:20;12.88;;;9.35;;
22531;SDS011;11432;46.924;7.114;2022-12-11T02:02:00;14.35;;;9.90;;
22531;SDS011;11432;46.924;7.114;2022-12-11T02:04:30;12.63;;;8.98;;
22531;SDS011;11432;46.924;7.114;2022-12-11T02:06:59;13.15;;;9.00;;
22531;SDS011;11432;46.924;7.114;2022-12-11T02:09:28;14.20;;;9.57;;
22531;SDS011;11432;46.924;7.114;2022-12-11T02:17:34;14.40;;;9.05;;
22531;SDS011;11432;46.924;7.114;2022-12-11T02:25:46;13.00;;;8.95;;
22531;SDS011;11432;46.924;7.114;2022-12-11T02:28:41;12.23;;;8.73;;
22531;SDS011;11432;46.924;7.114;2022-12-11T02:36:28;11.32;;;7.97;;
22531;SDS011;11432;46.924;7.114;2022-12-11T02:38:59;15.73;;;8.80;;
22531;SDS011;11432;46.924;7.114;2022-12-11T02:41:26;13.75;;;8.60;;
22531;SDS011;11432;46.924;7.114;2022-12-11T02:43:53;13.18;;;8.88;;
22531;SDS011;11432;46.924;7.114;2022-12-11T02:46:21;13.18;;;8.60;;
22531;SDS011;11432;46.924;7.114;2022-12-11T02:48:48;12.70;;;8.52;;
22531;SDS011;11432;46.924;7.114;2022-12-11T02:51:18;11.13;;;8.13;;
22531;SDS011;11432;46.924;7.114;2022-12-11T02:53:49;11.88;;;7.90;;
22531;SDS011;11432;46.924;7.114;2022-12-11T02:56:20;11.85;;;7.88;;
22531;SDS011;11432;46.924;7.114;2022-12-11T02:58:54;10.80;;;7.32;;
22531;SDS011;11432;46.924;7.114;2022-12-11T03:01:27;13.73;;;8.57;;
22531;SDS011;11432;46.924;7.114;2022-12-11T03:03:53;11.00;;;7.70;;
22531;SDS011;11432;46.924;7.114;2022-12-11T03:06:21;12.45;;;8.23;;
22531;SDS011;11432;46.924;7.114;2022-12-11T03:08:51;11.57;;;7.90;;
22531;SDS011;11432;46.924;7.114;2022-12-11T03:11:17;11.27;;;7.47;;
22531;SDS011;11432;46.924;7.114;2022-12-11T03:13:42;11.27;;;7.72;;
22531;SDS011;11432;46.924;7.114;2022-12-11T03:19:10;12.10;;;8.13;;
22531;SDS011;11432;46.924;7.114;2022-12-11T03:21:59;11.50;;;7.72;;
22531;SDS011;11432;46.924;7.114;2022-12-11T03:24:43;11.23;;;7.65;;
22531;SDS011;11432;46.924;7.114;2022-12-11T03:27:33;10.95;;;7.63;;
22531;SDS011;11432;46.924;7.114;2022-12-11T03:32:30;11.95;;;7.85;;
22531;SDS011;11432;46.924;7.114;2022-12-11T03:35:25;12.85;;;7.90;;
22531;SDS011;11432;46.924;7.114;2022-12-11T03:37:57;12.43;;;8.10;;
22531;SDS011;11432;46.924;7.114;2022-12-11T03:40:29;10.05;;;7.25;;
22531;SDS011;11432;46.924;7.114;2022-12-11T03:42:58;10.45;;;7.13;;
22531;SDS011;11432;46.924;7.114;2022-12-11T03:45:24;10.65;;;7.55;;
22531;SDS011;11432;46.924;7.114;2022-12-11T03:47:52;11.32;;;7.20;;
22531;SDS011;11432;46.924;7.114;2022-12-11T03:50:19;10.43;;;7.55;;
22531;SDS011;11432;46.924;7.114;2022-12-11T03:52:48;11.88;;;7.65;;
22531;SDS011;11432;46.924;7.114;2022-12-11T03:55:15;12.27;;;8.30;;
22531;SDS011;11432;46.924;7.114;2022-12-11T03:57:43;11.02;;;7.90;;
22531;SDS011;11432;46.924;7.114;2022-12-11T04:00:10;11.52;;;7.35;;
22531;SDS011;11432;46.924;7.114;2022-12-11T04:02:42;11.90;;;8.02;;
22531;SDS011;11432;46.924;7.114;2022-12-11T04:05:08;11.38;;;7.78;;
22531;SDS011;11432;46.924;7.114;2022-12-11T04:07:35;11.75;;;7.70;;
22531;SDS011;11432;46.924;7.114;2022-12-11T04:10:00;12.73;;;8.32;;
22531;SDS011;11432;46.924;7.114;2022-12-11T04:12:27;12.73;;;8.13;;
22531;SDS011;11432;46.924;7.114;2022-12-11T04:14:52;12.75;;;7.90;;
22531;SDS011;11432;46.924;7.114;2022-12-11T04:17:27;11.10;;;7.85;;
22531;SDS011;11432;46.924;7.114;2022-12-11T04:20:12;12.68;;;8.40;;
22531;SDS011;11432;46.924;7.114;2022-12-11T04:22:57;11.00;;;7.95;;
22531;SDS011;11432;46.924;7.114;2022-12-11T04:25:41;11.75;;;7.70;;
22531;SDS011;11432;46.924;7.114;2022-12-11T04:28:06;11.32;;;7.43;;
22531;SDS011;11432;46.924;7.114;2022-12-11T04:30:32;10.95;;;7.15;;
22531;SDS011;11432;46.924;7.114;2022-12-11T04:32:58;12.38;;;7.88;;
22531;SDS011;11432;46.924;7.114;2022-12-11T04:35:23;13.57;;;8.38;;
22531;SDS011;11432;46.924;7.114;2022-12-11T04:37:49;11.45;;;7.45;;
22531;SDS011;11432;46.924;7.114;2022-12-11T04:40:17;11.40;;;7.72;;
22531;SDS011;11432;46.924;7.114;2022-12-11T04:42:44;12.10;;;7.88;;
22531;SDS011;11432;46.924;7.114;2022-12-11T04:45:10;12.18;;;8.38;;
22531;SDS011;11432;46.924;7.114;2022-12-11T04:47:37;12.73;;;8.35;;
22531;SDS011;11432;46.924;7.114;2022-12-11T04:50:04;11.48;;;7.90;;
22531;SDS011;11432;46.924;7.114;2022-12-11T04:52:31;12.07;;;7.97;;
22531;SDS011;11432;46.924;7.114;2022-12-11T04:54:57;11.55;;;7.43;;
22531;SDS011;11432;46.924;7.114;2022-12-11T04:57:23;10.93;;;7.68;;
22531;SDS011;11432;46.924;7.114;2022-12-11T04:59:49;12.50;;;7.72;;
22531;SDS011;11432;46.924;7.114;2022-12-11T05:02:15;11.07;;;7.80;;
22531;SDS011;11432;46.924;7.114;2022-12-11T05:04:41;11.40;;;7.65;;
22531;SDS011;11432;46.924;7.114;2022-12-11T05:07:06;12.20;;;7.75;;
22531;SDS011;11432;46.924;7.114;2022-12-11T05:09:33;10.38;;;6.78;;
22531;SDS011;11432;46.924;7.114;2022-12-11T05:12:00;10.77;;;7.15;;
22531;SDS011;11432;46.924;7.114;2022-12-11T05:14:26;12.02;;;7.60;;
22531;SDS011;11432;46.924;7.114;2022-12-11T05:16:55;10.75;;;6.75;;
22531;SDS011;11432;46.924;7.114;2022-12-11T05:19:22;9.88;;;6.72;;
22531;SDS011;11432;46.924;7.114;2022-12-11T05:21:47;9.85;;;6.55;;
22531;SDS011;11432;46.924;7.114;2022-12-11T05:24:13;9.70;;;6.57;;
22531;SDS011;11432;46.924;7.114;2022-12-11T05:26:39;10.25;;;6.50;;
22531;SDS011;11432;46.924;7.114;2022-12-11T05:29:04;10.32;;;5.90;;
22531;SDS011;11432;46.924;7.114;2022-12-11T05:31:30;8.38;;;5.68;;
22531;SDS011;11432;46.924;7.114;2022-12-11T05:33:55;8.23;;;5.63;;
22531;SDS011;11432;46.924;7.114;2022-12-11T05:36:22;8.10;;;5.65;;
22531;SDS011;11432;46.924;7.114;2022-12-11T05:38:56;8.50;;;5.10;;
22531;SDS011;11432;46.924;7.114;2022-12-11T05:41:24;6.65;;;4.75;;
22531;SDS011;11432;46.924;7.114;2022-12-11T05:46:19;9.05;;;5.25;;
22531;SDS011;11432;46.924;7.114;2022-12-11T05:48:47;7.37;;;5.03;;
22531;SDS011;11432;46.924;7.114;2022-12-11T05:51:15;7.15;;;5.05;;
22531;SDS011;11432;46.924;7.114;2022-12-11T05:53:42;7.65;;;5.30;;
22531;SDS011;11432;46.924;7.114;2022-12-11T05:56:10;8.75;;;4.97;;
22531;SDS011;11432;46.924;7.114;2022-12-11T05:58:37;6.82;;;4.38;;
22531;SDS011;11432;46.924;7.114;2022-12-11T06:01:11;8.43;;;5.60;;
22531;SDS011;11432;46.924;7.114;2022-12-11T06:03:41;7.35;;;5.13;;
22531;SDS011;11432;46.924;7.114;2022-12-11T06:06:07;7.68;;;5.30;;
22531;SDS011;11432;46.924;7.114;2022-12-11T06:08:33;7.05;;;5.15;;
22531;SDS011;11432;46.924;7.114;2022-12-11T06:10:59;8.18;;;5.25;;
22531;SDS011;11432;46.924;7.114;2022-12-11T06:13:25;7.65;;;5.40;;
22531;SDS011;11432;46.924;7.114;2022-12-11T06:15:51;6.75;;;4.85;;
22531;SDS011;11432;46.924;7.114;2022-12-11T06:18:16;8.07;;;5.75;;
22531;SDS011;11432;46.924;7.114;2022-12-11T06:20:42;7.68;;;4.82;;
22531;SDS011;11432;46.924;7.114;2022-12-11T06:23:08;7.38;;;5.05;;
22531;SDS011;11432;46.924;7.114;2022-12-11T06:25:34;7.40;;;5.00;;
22531;SDS011;11432;46.924;7.114;2022-12-11T06:28:02;7.35;;;4.97;;
22531;SDS011;11432;46.924;7.114;2022-12-11T06:30:27;7.78;;;4.93;;
22531;SDS011;11432;46.924;7.114;2022-12-11T06:32:53;8.27;;;4.90;;
22531;SDS011;11432;46.924;7.114;2022-12-11T06:35:19;8.85;;;5.63;;
22531;SDS011;11432;46.924;7.114;2022-12-11T06:37:44;7.57;;;5.22;;
22531;SDS011;11432;46.924;7.114;2022-12-11T06:40:10;7.28;;;4.93;;
22531;SDS011;11432;46.924;7.114;2022-12-11T06:42:36;7.95;;;5.00;;
22531;SDS011;11432;46.924;7.114;2022-12-11T06:45:03;8.13;;;5.57;;
22531;SDS011;11432;46.924;7.114;2022-12-11T06:47:29;8.60;;;5.28;;
22531;SDS011;11432;46.924;7.114;2022-12-11T06:49:55;8.05;;;5.60;;
22531;SDS011;11432;46.924;7.114;2022-12-11T06:52:21;6.93;;;4.90;;
22531;SDS011;11432;46.924;7.114;2022-12-11T06:54:48;6.78;;;4.63;;
22531;SDS011;11432;46.924;7.114;2022-12-11T06:57:14;7.38;;;5.13;;
22531;SDS011;11432;46.924;7.114;2022-12-11T06:59:40;8.77;;;5.60;;
22531;SDS011;11432;46.924;7.114;2022-12-11T07:02:07;7.85;;;5.03;;
22531;SDS011;11432;46.924;7.114;2022-12-11T07:04:37;8.02;;;4.93;;
22531;SDS011;11432;46.924;7.114;2022-12-11T07:07:02;8.57;;;5.28;;
22531;SDS011;11432;46.924;7.114;2022-12-11T07:09:28;8.25;;;5.03;;
22531;SDS011;11432;46.924;7.114;2022-12-11T07:11:53;7.28;;;4.85;;
22531;SDS011;11432;46.924;7.114;2022-12-11T07:14:19;7.35;;;4.85;;
22531;SDS011;11432;46.924;7.114;2022-12-11T07:16:45;9.10;;;5.63;;
22531;SDS011;11432;46.924;7.114;2022-12-11T07:19:10;7.88;;;5.20;;
22531;SDS011;11432;46.924;7.114;2022-12-11T07:21:36;10.13;;;5.45;;
22531;SDS011;11432;46.924;7.114;2022-12-11T07:24:02;8.30;;;5.43;;
22531;SDS011;11432;46.924;7.114;2022-12-11T07:26:27;8.20;;;5.43;;
22531;SDS011;11432;46.924;7.114;2022-12-11T07:28:55;8.07;;;5.60;;
22531;SDS011;11432;46.924;7.114;2022-12-11T07:31:22;7.35;;;4.80;;
22531;SDS011;11432;46.924;7.114;2022-12-11T07:33:56;7.88;;;5.45;;
22531;SDS011;11432;46.924;7.114;2022-12-11T07:36:24;10.23;;;5.47;;
22531;SDS011;11432;46.924;7.114;2022-12-11T07:38:50;10.00;;;5.18;;
22531;SDS011;11432;46.924;7.114;2022-12-11T07:41:16;7.30;;;5.10;;
22531;SDS011;11432;46.924;7.114;2022-12-11T07:43:42;8.38;;;5.72;;
22531;SDS011;11432;46.924;7.114;2022-12-11T07:46:10;9.25;;;6.03;;
22531;SDS011;11432;46.924;7.114;2022-12-11T07:48:44;8.10;;;5.88;;
22531;SDS011;11432;46.924;7.114;2022-12-11T07:51:12;8.18;;;5.28;;
22531;SDS011;11432;46.924;7.114;2022-12-11T07:53:40;7.53;;;4.97;;
22531;SDS011;11432;46.924;7.114;2022-12-11T07:56:06;7.55;;;5.13;;
22531;SDS011;11432;46.924;7.114;2022-12-11T07:58:32;6.50;;;5.05;;
22531;SDS011;11432;46.924;7.114;2022-12-11T08:00:58;8.65;;;5.32;;
22531;SDS011;11432;46.924;7.114;2022-12-11T08:03:24;7.82;;;5.22;;
22531;SDS011;11432;46.924;7.114;2022-12-11T08:05:50;8.25;;;5.20;;
22531;SDS011;11432;46.924;7.114;2022-12-11T08:08:16;7.80;;;5.20;;
22531;SDS011;11432;46.924;7.114;2022-12-11T08:10:43;7.50;;;5.25;;
22531;SDS011;11432;46.924;7.114;2022-12-11T08:13:08;8.55;;;5.80;;
22531;SDS011;11432;46.924;7.114;2022-12-11T08:15:35;7.35;;;5.05;;
22531;SDS011;11432;46.924;7.114;2022-12-11T08:18:01;7.88;;;5.53;;
22531;SDS011;11432;46.924;7.114;2022-12-11T08:20:26;8.60;;;5.43;;
22531;SDS011;11432;46.924;7.114;2022-12-11T08:22:52;8.25;;;5.53;;
22531;SDS011;11432;46.924;7.114;2022-12-11T08:25:17;8.05;;;5.72;;
22531;SDS011;11432;46.924;7.114;2022-12-11T08:27:43;7.30;;;5.43;;
22531;SDS011;11432;46.924;7.114;2022-12-11T08:30:09;7.90;;;5.40;;
22531;SDS011;11432;46.924;7.114;2022-12-11T08:32:35;7.45;;;5.45;;
22531;SDS011;11432;46.924;7.114;2022-12-11T08:35:00;7.18;;;5.05;;
22531;SDS011;11432;46.924;7.114;2022-12-11T08:37:26;7.53;;;5.50;;
22531;SDS011;11432;46.924;7.114;2022-12-11T08:39:52;6.90;;;5.30;;
22531;SDS011;11432;46.924;7.114;2022-12-11T08:42:17;9.80;;;6.00;;
22531;SDS011;11432;46.924;7.114;2022-12-11T08:44:43;14.70;;;8.15;;
22531;SDS011;11432;46.924;7.114;2022-12-11T08:47:08;15.90;;;8.82;;
22531;SDS011;11432;46.924;7.114;2022-12-11T08:49:35;12.93;;;7.95;;
22531;SDS011;11432;46.924;7.114;2022-12-11T08:52:03;10.07;;;6.63;;
22531;SDS011;11432;46.924;7.114;2022-12-11T08:54:29;8.38;;;6.03;;
22531;SDS011;11432;46.924;7.114;2022-12-11T08:56:55;8.23;;;5.53;;
22531;SDS011;11432;46.924;7.114;2022-12-11T08:59:21;9.15;;;6.25;;
22531;SDS011;11432;46.924;7.114;2022-12-11T09:01:47;8.43;;;5.72;;
22531;SDS011;11432;46.924;7.114;2022-12-11T09:04:13;8.75;;;6.07;;
22531;SDS011;11432;46.924;7.114;2022-12-11T09:06:38;8.90;;;5.90;;
22531;SDS011;11432;46.924;7.114;2022-12-11T09:09:04;7.20;;;5.20;;
22531;SDS011;11432;46.924;7.114;2022-12-11T09:11:31;8.32;;;6.07;;
22531;SDS011;11432;46.924;7.114;2022-12-11T09:13:58;9.50;;;6.32;;
22531;SDS011;11432;46.924;7.114;2022-12-11T09:16:25;9.00;;;5.75;;
22531;SDS011;11432;46.924;7.114;2022-12-11T09:18:53;9.15;;;6.25;;
22531;SDS011;11432;46.924;7.114;2022-12-11T09:21:21;9.93;;;6.30;;
22531;SDS011;11432;46.924;7.114;2022-12-11T09:23:48;10.15;;;6.47;;
22531;SDS011;11432;46.924;7.114;2022-12-11T09:26:17;9.77;;;6.28;;
22531;SDS011;11432;46.924;7.114;2022-12-11T09:28:44;9.65;;;6.65;;
22531;SDS011;11432;46.924;7.114;2022-12-11T09:31:15;10.30;;;6.13;;
22531;SDS011;11432;46.924;7.114;2022-12-11T09:33:42;9.07;;;6.15;;
22531;SDS011;11432;46.924;7.114;2022-12-11T09:36:09;10.73;;;6.03;;
22531;SDS011;11432;46.924;7.114;2022-12-11T09:38:36;10.20;;;6.15;;
22531;SDS011;11432;46.924;7.114;2022-12-11T09:41:02;9.05;;;6.22;;
22531;SDS011;11432;46.924;7.114;2022-12-11T09:43:51;8.98;;;6.35;;
22531;SDS011;11432;46.924;7.114;2022-12-11T09:46:31;8.57;;;6.05;;
22531;SDS011;11432;46.924;7.114;2022-12-11T09:48:59;9.18;;;6.35;;
22531;SDS011;11432;46.924;7.114;2022-12-11T09:51:29;9.18;;;6.18;;
22531;SDS011;11432;46.924;7.114;2022-12-11T09:53:59;8.82;;;6.15;;
22531;SDS011;11432;46.924;7.114;2022-12-11T09:56:32;8.77;;;6.50;;
22531;SDS011;11432;46.924;7.114;2022-12-11T10:07:35;9.90;;;6.35;;
22531;SDS011;11432;46.924;7.114;2022-12-11T10:12:53;9.68;;;6.53;;
22531;SDS011;11432;46.924;7.114;2022-12-11T10:18:15;11.70;;;7.40;;
22531;SDS011;11432;46.924;7.114;2022-12-11T10:20:45;10.52;;;7.18;;
22531;SDS011;11432;46.924;7.114;2022-12-11T10:23:16;10.63;;;7.25;;
22531;SDS011;11432;46.924;7.114;2022-12-11T10:25:50;13.02;;;7.68;;
22531;SDS011;11432;46.924;7.114;2022-12-11T10:28:21;11.75;;;7.63;;
22531;SDS011;11432;46.924;7.114;2022-12-11T10:30:52;13.02;;;7.78;;
22531;SDS011;11432;46.924;7.114;2022-12-11T10:33:33;12.35;;;7.70;;
22531;SDS011;11432;46.924;7.114;2022-12-11T10:36:14;11.55;;;7.95;;
22531;SDS011;11432;46.924;7.114;2022-12-11T10:38:47;12.15;;;7.93;;
22531;SDS011;11432;46.924;7.114;2022-12-11T10:41:13;11.50;;;7.95;;
22531;SDS011;11432;46.924;7.114;2022-12-11T10:43:44;12.07;;;8.18;;
22531;SDS011;11432;46.924;7.114;2022-12-11T10:46:21;11.23;;;7.70;;
22531;SDS011;11432;46.924;7.114;2022-12-11T10:48:55;12.98;;;8.23;;
22531;SDS011;11432;46.924;7.114;2022-12-11T10:53:55;11.65;;;7.72;;
22531;SDS011;11432;46.924;7.114;2022-12-11T10:56:30;12.40;;;8.25;;
22531;SDS011;11432;46.924;7.114;2022-12-11T10:58:57;14.00;;;8.65;;
22531;SDS011;11432;46.924;7.114;2022-12-11T11:01:26;12.30;;;8.68;;
22531;SDS011;11432;46.924;7.114;2022-12-11T11:03:54;13.90;;;9.13;;
22531;SDS011;11432;46.924;7.114;2022-12-11T11:06:27;13.73;;;8.68;;
22531;SDS011;11432;46.924;7.114;2022-12-11T11:08:56;15.40;;;9.38;;
22531;SDS011;11432;46.924;7.114;2022-12-11T11:11:30;11.52;;;8.30;;
22531;SDS011;11432;46.924;7.114;2022-12-11T11:16:34;14.60;;;8.70;;
22531;SDS011;11432;46.924;7.114;2022-12-11T11:19:01;11.88;;;8.40;;
22531;SDS011;11432;46.924;7.114;2022-12-11T11:21:27;12.52;;;8.13;;
22531;SDS011;11432;46.924;7.114;2022-12-11T11:23:54;12.75;;;8.73;;
22531;SDS011;11432;46.924;7.114;2022-12-11T11:26:20;12.75;;;8.57;;
22531;SDS011;11432;46.924;7.114;2022-12-11T11:31:17;12.90;;;8.18;;
22531;SDS011;11432;46.924;7.114;2022-12-11T11:33:46;14.23;;;9.27;;
22531;SDS011;11432;46.924;7.114;2022-12-11T11:36:23;12.20;;;8.02;;
22531;SDS011;11432;46.924;7.114;2022-12-11T11:39:14;12.55;;;7.82;;
22531;SDS011;11432;46.924;7.114;2022-12-11T11:44:19;12.77;;;7.97;;
22531;SDS011;11432;46.924;7.114;2022-12-11T12:00:24;13.35;;;8.48;;
22531;SDS011;11432;46.924;7.114;2022-12-11T12:03:00;11.93;;;7.97;;
22531;SDS011;11432;46.924;7.114;2022-12-11T12:05:42;11.90;;;7.85;;
22531;SDS011;11432;46.924;7.114;2022-12-11T12:08:33;11.63;;;7.65;;
22531;SDS011;11432;46.924;7.114;2022-12-11T12:19:37;11.15;;;7.53;;
22531;SDS011;11432;46.924;7.114;2022-12-11T12:22:32;12.02;;;7.70;;
22531;SDS011;11432;46.924;7.114;2022-12-11T12:30:43;11.85;;;8.40;;
22531;SDS011;11432;46.924;7.114;2022-12-11T12:33:39;13.68;;;8.68;;
22531;SDS011;11432;46.924;7.114;2022-12-11T12:41:31;11.38;;;7.97;;
22531;SDS011;11432;46.924;7.114;2022-12-11T12:46:42;12.15;;;8.32;;
22531;SDS011;11432;46.924;7.114;2022-12-11T12:49:11;12.45;;;8.43;;
22531;SDS011;11432;46.924;7.114;2022-12-11T12:51:54;13.07;;;8.63;;
22531;SDS011;11432;46.924;7.114;2022-12-11T12:54:21;14.27;;;8.45;;
22531;SDS011;11432;46.924;7.114;2022-12-11T12:56:49;12.50;;;8.98;;
22531;SDS011;11432;46.924;7.114;2022-12-11T12:59:21;13.07;;;8.95;;
22531;SDS011;11432;46.924;7.114;2022-12-11T13:01:49;12.07;;;8.48;;
22531;SDS011;11432;46.924;7.114;2022-12-11T13:09:54;12.52;;;8.57;;
22531;SDS011;11432;46.924;7.114;2022-12-11T13:12:30;12.65;;;8.80;;
22531;SDS011;11432;46.924;7.114;2022-12-11T13:14:58;13.07;;;8.93;;
22531;SDS011;11432;46.924;7.114;2022-12-11T13:17:25;13.15;;;9.38;;
22531;SDS011;11432;46.924;7.114;2022-12-11T13:20:14;13.35;;;9.45;;
22531;SDS011;11432;46.924;7.114;2022-12-11T13:25:53;14.43;;;9.07;;
22531;SDS011;11432;46.924;7.114;2022-12-11T13:33:42;13.93;;;8.93;;
22531;SDS011;11432;46.924;7.114;2022-12-11T13:38:38;13.23;;;9.40;;
22531;SDS011;11432;46.924;7.114;2022-12-11T13:41:17;13.27;;;9.30;;
22531;SDS011;11432;46.924;7.114;2022-12-11T13:43:44;11.35;;;8.55;;
22531;SDS011;11432;46.924;7.114;2022-12-11T13:46:13;15.67;;;9.00;;
22531;SDS011;11432;46.924;7.114;2022-12-11T13:48:47;12.52;;;8.85;;
22531;SDS011;11432;46.924;7.114;2022-12-11T13:51:20;14.70;;;9.05;;
22531;SDS011;11432;46.924;7.114;2022-12-11T13:53:47;11.98;;;8.88;;
22531;SDS011;11432;46.924;7.114;2022-12-11T13:56:20;13.57;;;8.63;;
22531;SDS011;11432;46.924;7.114;2022-12-11T13:58:46;12.85;;;8.95;;
22531;SDS011;11432;46.924;7.114;2022-12-11T14:01:18;13.02;;;8.93;;
22531;SDS011;11432;46.924;7.114;2022-12-11T14:06:20;12.48;;;9.00;;
22531;SDS011;11432;46.924;7.114;2022-12-11T14:08:47;12.25;;;8.45;;
22531;SDS011;11432;46.924;7.114;2022-12-11T14:11:17;13.27;;;8.50;;
22531;SDS011;11432;46.924;7.114;2022-12-11T14:13:47;15.80;;;9.60;;
22531;SDS011;11432;46.924;7.114;2022-12-11T14:16:18;12.25;;;8.65;;
22531;SDS011;11432;46.924;7.114;2022-12-11T14:18:47;13.68;;;9.50;;
22531;SDS011;11432;46.924;7.114;2022-12-11T14:21:19;14.23;;;9.10;;
22531;SDS011;11432;46.924;7.114;2022-12-11T14:23:52;14.00;;;8.43;;
22531;SDS011;11432;46.924;7.114;2022-12-11T14:26:20;12.60;;;8.88;;
22531;SDS011;11432;46.924;7.114;2022-12-11T14:28:47;14.20;;;8.52;;
22531;SDS011;11432;46.924;7.114;2022-12-11T14:31:14;12.65;;;8.20;;
22531;SDS011;11432;46.924;7.114;2022-12-11T14:33:47;13.43;;;9.15;;
22531;SDS011;11432;46.924;7.114;2022-12-11T14:36:17;13.80;;;8.60;;
22531;SDS011;11432;46.924;7.114;2022-12-11T14:38:51;12.60;;;8.10;;
22531;SDS011;11432;46.924;7.114;2022-12-11T14:44:12;12.35;;;8.32;;
22531;SDS011;11432;46.924;7.114;2022-12-11T14:46:51;14.93;;;8.80;;
22531;SDS011;11432;46.924;7.114;2022-12-11T14:49:30;14.18;;;9.20;;
22531;SDS011;11432;46.924;7.114;2022-12-11T14:52:05;13.50;;;8.43;;
22531;SDS011;11432;46.924;7.114;2022-12-11T14:54:42;12.73;;;8.85;;
22531;SDS011;11432;46.924;7.114;2022-12-11T14:57:19;12.75;;;8.90;;
22531;SDS011;11432;46.924;7.114;2022-12-11T14:59:47;14.35;;;8.98;;
22531;SDS011;11432;46.924;7.114;2022-12-11T15:02:20;13.18;;;9.10;;
22531;SDS011;11432;46.924;7.114;2022-12-11T15:04:56;15.02;;;9.38;;
22531;SDS011;11432;46.924;7.114;2022-12-11T15:07:34;13.82;;;8.77;;
22531;SDS011;11432;46.924;7.114;2022-12-11T15:10:00;11.88;;;8.98;;
22531;SDS011;11432;46.924;7.114;2022-12-11T15:12:27;14.68;;;9.68;;
22531;SDS011;11432;46.924;7.114;2022-12-11T15:15:01;15.32;;;9.65;;
22531;SDS011;11432;46.924;7.114;2022-12-11T15:17:30;14.82;;;9.27;;
22531;SDS011;11432;46.924;7.114;2022-12-11T15:20:05;14.63;;;9.63;;
22531;SDS011;11432;46.924;7.114;2022-12-11T15:22:33;15.73;;;9.55;;
22531;SDS011;11432;46.924;7.114;2022-12-11T15:24:59;13.10;;;8.57;;
22531;SDS011;11432;46.924;7.114;2022-12-11T15:32:59;16.25;;;10.13;;
22531;SDS011;11432;46.924;7.114;2022-12-11T15:35:50;18.85;;;11.23;;
22531;SDS011;11432;46.924;7.114;2022-12-11T15:38:27;16.17;;;10.13;;
22531;SDS011;11432;46.924;7.114;2022-12-11T15:40:57;16.92;;;10.77;;
22531;SDS011;11432;46.924;7.114;2022-12-11T15:43:23;18.75;;;11.40;;
22531;SDS011;11432;46.924;7.114;2022-12-11T15:45:50;15.63;;;10.55;;
22531;SDS011;11432;46.924;7.114;2022-12-11T15:48:15;16.00;;;10.63;;
22531;SDS011;11432;46.924;7.114;2022-12-11T15:50:41;16.50;;;10.10;;
22531;SDS011;11432;46.924;7.114;2022-12-11T15:53:07;14.70;;;9.60;;
22531;SDS011;11432;46.924;7.114;2022-12-11T15:55:33;13.75;;;10.05;;
22531;SDS011;11432;46.924;7.114;2022-12-11T15:58:01;15.73;;;10.15;;
22531;SDS011;11432;46.924;7.114;2022-12-11T16:00:33;15.73;;;10.00;;
22531;SDS011;11432;46.924;7.114;2022-12-11T16:02:58;14.88;;;10.40;;
22531;SDS011;11432;46.924;7.114;2022-12-11T16:05:24;17.23;;;10.90;;
22531;SDS011;11432;46.924;7.114;2022-12-11T16:07:50;15.80;;;10.68;;
22531;SDS011;11432;46.924;7.114;2022-12-11T16:10:18;16.08;;;9.82;;
22531;SDS011;11432;46.924;7.114;2022-12-11T16:12:44;17.52;;;10.95;;
22531;SDS011;11432;46.924;7.114;2022-12-11T16:15:11;19.15;;;12.10;;
22531;SDS011;11432;46.924;7.114;2022-12-11T16:17:38;17.50;;;11.93;;
22531;SDS011;11432;46.924;7.114;2022-12-11T16:20:04;16.42;;;10.88;;
22531;SDS011;11432;46.924;7.114;2022-12-11T16:22:31;15.00;;;10.32;;
22531;SDS011;11432;46.924;7.114;2022-12-11T16:24:56;16.50;;;11.05;;
22531;SDS011;11432;46.924;7.114;2022-12-11T16:27:22;16.85;;;11.05;;
22531;SDS011;11432;46.924;7.114;2022-12-11T16:29:47;16.95;;;11.25;;
22531;SDS011;11432;46.924;7.114;2022-12-11T16:32:13;17.20;;;11.05;;
22531;SDS011;11432;46.924;7.114;2022-12-11T16:34:39;17.98;;;11.57;;
22531;SDS011;11432;46.924;7.114;2022-12-11T16:37:06;16.77;;;10.70;;
22531;SDS011;11432;46.924;7.114;2022-12-11T16:39:33;17.90;;;12.55;;
22531;SDS011;11432;46.924;7.114;2022-12-11T16:42:00;19.95;;;13.00;;
22531;SDS011;11432;46.924;7.114;2022-12-11T16:44:26;20.95;;;13.00;;
22531;SDS011;11432;46.924;7.114;2022-12-11T16:46:52;22.48;;;14.15;;